Latest Weather Observations for Cape Grim

IDT60801

Issued at 9:31 pm EDT Friday 18 January 2019 (issued every 10 minutes, with the page automatically refreshed every 10 minutes)

About weather observations | Map of weather stations | Latest weather observations for TAS | Other Formats
Station Details ID: 091331 Name: CAPE GRIM Lat: -40.68 Lon: 144.69 Height: 86.0 m
Data from the previous 72 hours. | See also: Recent months at Cape Grim
Date/Time
EDT
Temp
°C
App
Temp
°C
Dew
Point
°C
Rel
Hum
%
Delta-T
°C
Wind Press
QNH
hPa
Press
MSL
hPa
Rain since
9am
mm
Dir  Spd
km/h
Gust
km/h
Spd
kts
Gust
kts
18/09:30pm 16.6 10.1 11.7 73 2.7 W 37 56 20 30 1011.4 1011.3 0.0
18/09:00pm 16.6 11.0 12.2 75 2.4 WSW 33 59 18 32 1011.2 1011.1 0.0
18/08:30pm 16.7 11.8 13.8 83 1.6 WSW 32 59 17 32 1010.4 1010.3 0.0
18/08:00pm 16.1 10.0 14.1 88 1.1 W 39 59 21 32 1010.0 1009.9 0.0
18/07:54pm 16.9 12.0 15.2 90 1.0 W 35 54 19 29 1010.0 1009.9 0.0
18/07:30pm 16.5 12.4 16.5 100 0.0 W 33 43 18 23 1009.7 1009.6 0.0
18/07:15pm 16.3 11.3 16.1 99 0.1 W 37 56 20 30 1009.5 1009.3 0.0
18/07:00pm 17.8 12.5 14.1 79 2.1 W 35 50 19 27 1009.4 1009.2 0.0
18/06:30pm 17.8 12.1 13.1 74 2.6 W 35 52 19 28 1009.0 1008.8 0.0
18/06:00pm 18.3 13.2 13.8 75 2.6 W 33 46 18 25 1008.7 1008.5 0.0
18/05:30pm 18.4 13.5 13.7 74 2.7 W 32 46 17 25 1008.7 1008.5 0.0
18/05:00pm 18.5 13.9 13.6 73 2.8 W 30 44 16 24 1008.4 1008.2 0.0
18/04:30pm 18.5 14.1 12.9 70 3.2 W 28 37 15 20 1008.0 1007.8 0.0
18/04:00pm 18.2 13.8 12.9 71 3.0 W 28 37 15 20 1008.1 1007.9 0.0
18/03:30pm 17.9 13.8 12.8 72 2.9 W 26 35 14 19 1007.9 1007.7 0.0
18/03:00pm 18.0 14.3 12.7 71 3.0 W 24 33 13 18 1007.8 1007.6 0.0
18/02:30pm 18.7 15.9 13.1 70 3.2 W 20 33 11 18 1007.4 1007.2 0.0
18/02:02pm 18.4 15.8 13.7 74 2.7 W 20 30 11 16 1007.4 1007.2 0.0
18/02:00pm 18.6 16.0 13.7 73 2.8 W 20 30 11 16 1007.3 1007.1 0.0
18/01:30pm 18.7 16.3 14.4 76 2.5 WSW 20 33 11 18 1007.6 1007.4 0.0
18/01:29pm 18.6 16.1 14.1 75 2.6 WSW 20 33 11 18 1007.5 1007.3 0.0
18/01:00pm 20.0 19.2 15.0 73 3.0 W 13 20 7 11 1007.2 1007.0 0.0
18/12:30pm 18.5 16.5 14.0 75 2.6 WSW 17 26 9 14 1007.8 1007.6 0.0
18/12:00pm 18.2 16.4 14.5 79 2.1 WSW 17 26 9 14 1008.2 1008.0 0.0
18/11:30am 17.8 15.4 14.3 80 2.0 SW 20 26 11 14 1007.8 1007.6 0.0
18/11:00am 18.4 16.3 15.1 81 1.9 SW 20 24 11 13 1008.5 1008.3 0.0
18/10:30am 18.2 17.0 15.1 82 1.8 SW 15 20 8 11 1008.7 1008.5 0.0
18/10:00am 17.9 16.2 14.6 81 1.9 SW 17 20 9 11 1008.3 1008.1 0.0
18/09:30am 18.0 16.9 15.4 85 1.5 SW 15 19 8 10 1008.5 1008.3 0.0
18/09:00am 17.2 15.5 14.8 86 1.4 SW 17 20 9 11 1008.6 1008.4 0.8
18/08:30am 17.3 15.7 16.0 92 0.8 SSW 19 26 10 14 1008.0 1007.8 0.8
18/08:00am 16.4 14.0 16.4 100 0.0 SSW 24 30 13 16 1007.7 1007.5 0.8
18/07:51am 16.5 14.1 16.5 100 0.0 SSW 24 33 13 18 1007.6 1007.4 0.8
18/07:30am 16.8 14.6 16.8 100 0.0 SSW 24 35 13 19 1007.2 1007.0 0.8
18/07:00am 16.8 15.3 16.8 100 0.0 SSW 20 28 11 15 1007.3 1007.1 0.8
18/06:30am 16.7 14.0 16.7 100 0.0 SSW 26 33 14 18 1006.6 1006.4 0.8
18/06:00am 17.1 14.6 17.1 100 0.0 SW 26 35 14 19 1006.6 1006.4 0.8
18/05:58am 17.1 14.2 17.1 100 0.0 SW 28 35 15 19 1006.6 1006.4 0.8
18/05:30am 17.5 16.9 17.5 100 0.0 SW 17 24 9 13 1006.4 1006.2 0.8
18/05:29am 17.5 17.3 17.5 100 0.0 SW 15 24 8 13 1006.4 1006.2 0.8
18/05:00am 17.8 18.4 17.8 100 0.0 WSW 11 19 6 10 1006.0 1005.8 0.8
18/04:30am 17.5 17.6 17.5 100 0.0 W 13 17 7 9 1005.8 1005.6 0.8
18/04:00am 17.8 18.1 17.8 100 0.0 WNW 13 17 7 9 1006.1 1005.9 0.8
18/03:30am 18.1 18.5 18.1 100 0.0 W 13 15 7 8 1006.2 1006.0 0.8
18/03:00am 18.2 18.6 18.2 100 0.0 WSW 13 19 7 10 1005.6 1005.5 0.8
18/02:30am 18.2 18.6 18.2 100 0.0 WSW 13 19 7 10 1005.9 1005.7 0.8
18/02:00am 18.3 18.4 18.3 100 0.0 W 15 22 8 12 1006.3 1006.1 0.8
18/01:30am 18.2 17.5 18.2 100 0.0 WNW 19 24 10 13 1006.8 1006.6 0.8
18/01:00am 18.1 17.7 18.1 100 0.0 W 17 22 9 12 1007.2 1007.0 0.6
18/12:38am 18.2 17.3 18.2 100 0.0 WNW 20 26 11 14 1007.2 1007.0 0.2
18/12:30am 18.2 17.3 18.2 100 0.0 WNW 20 26 11 14 1007.3 1007.1 0.2
18/12:00am 18.2 19.0 18.2 100 0.0 WSW 11 17 6 9 1006.6 1006.4 0.2
 
Date/Time
EDT
Temp
°C
App
Temp
°C
Dew
Point
°C
Rel
Hum
%
Delta-T
°C
Wind Press
QNH
hPa
Press
MSL
hPa
Rain since
9am
mm
Dir  Spd
km/h
Gust
km/h
Spd
kts
Gust
kts
17/11:30pm 18.2 19.0 18.2 100 0.0 W 11 13 6 7 1006.4 1006.2 0.2
17/11:00pm 18.5 19.8 18.5 100 0.0 WNW 9 17 5 9 1007.0 1006.8 0.2
17/10:30pm 18.5 18.3 18.5 100 0.0 NW 17 24 9 13 1007.7 1007.5 0.0
17/10:00pm 18.7 19.0 18.7 100 0.0 N 15 17 8 9 1007.7 1007.5 0.0
17/09:30pm 18.5 19.4 18.5 100 0.0 NE 11 17 6 9 1006.8 1006.6 0.0
17/09:00pm 18.6 19.2 18.6 100 0.0 NE 13 17 7 9 1006.6 1006.4 0.0
17/08:30pm 18.8 19.1 18.8 100 0.0 NE 15 17 8 9 1006.6 1006.4 0.0
17/08:00pm 18.9 18.3 18.9 100 0.0 NE 20 24 11 13 1006.5 1006.3 0.0
17/07:30pm 19.0 18.1 19.0 100 0.0 ENE 22 26 12 14 1006.1 1005.9 0.0
17/07:00pm 19.0 18.1 19.0 100 0.0 NE 22 28 12 15 1006.4 1006.2 0.0
17/06:30pm 20.1 18.4 17.3 84 1.7 NE 22 26 12 14 1007.1 1006.9 0.0
17/06:00pm 20.8 17.9 17.0 79 2.3 ENE 28 32 15 17 1005.6 1005.5 0.0
17/05:30pm 22.8 20.6 16.8 69 3.7 NE 24 30 13 16 1006.3 1006.1 0.0
17/05:00pm 23.6 21.0 15.9 62 4.7 NE 24 32 13 17 1006.4 1006.2 0.0
17/04:30pm 23.9 22.3 15.9 61 4.9 NE 19 26 10 14 1006.7 1006.5 0.0
17/04:00pm 23.3 21.3 16.4 65 4.2 NNE 22 30 12 16 1007.2 1007.0 0.0
17/03:30pm 24.6 22.9 17.1 63 4.7 NNE 22 28 12 15 1007.2 1007.0 0.0
17/03:00pm 24.6 22.3 16.6 61 4.9 NNE 24 32 13 17 1007.7 1007.5 0.0
17/02:30pm 23.3 20.0 16.1 64 4.4 NNE 28 35 15 19 1007.8 1007.6 0.0
17/02:00pm 21.8 20.2 17.4 76 2.7 NNE 22 28 12 15 1007.9 1007.7 0.0
17/01:30pm 21.5 20.0 17.7 79 2.4 N 22 28 12 15 1008.3 1008.1 0.0
17/01:05pm 21.6 20.4 18.4 82 2.0 NNE 22 28 12 15 1008.1 1007.9 0.0
17/01:00pm 21.8 20.8 18.8 83 1.9 NE 22 28 12 15 1008.2 1008.0 0.0
17/12:38pm 21.5 19.6 19.4 88 1.3 NE 28 35 15 19 1007.9 1007.7 0.0
17/12:30pm 21.2 18.3 18.9 87 1.5 NE 32 39 17 21 1007.7 1007.5 0.0
17/12:00pm 20.6 16.3 18.7 89 1.2 NE 39 46 21 25 1007.3 1007.1 0.0
17/11:30am 21.1 17.9 18.7 86 1.5 ENE 33 39 18 21 1006.9 1006.7 0.0
17/11:00am 21.3 18.7 19.4 89 1.2 ENE 32 35 17 19 1006.8 1006.6 0.0
17/10:30am 20.2 18.3 20.2 100 0.0 ENE 30 35 16 19 1007.0 1006.8 0.0
17/10:00am 18.8 16.6 18.8 100 0.0 E 28 32 15 17 1007.5 1007.3 0.0
17/09:30am 18.2 15.8 18.2 100 0.0 E 28 32 15 17 1007.7 1007.5 0.0
17/09:00am 18.0 15.9 18.0 100 0.0 E 26 30 14 16 1008.0 1007.8 2.8
17/08:30am 18.1 16.0 18.1 100 0.0 ENE 26 30 14 16 1008.3 1008.1 2.8
17/08:00am 17.6 14.2 17.6 100 0.0 ENE 32 37 17 20 1008.2 1008.0 2.8
17/07:30am 17.5 14.4 17.5 100 0.0 ENE 30 35 16 19 1008.6 1008.4 2.6
17/07:00am 17.4 14.6 17.4 100 0.0 NE 28 32 15 17 1009.0 1008.8 2.4
17/06:30am 17.3 13.7 17.3 100 0.0 ENE 32 37 17 20 1008.7 1008.5 2.2
17/06:05am 16.9 12.6 16.9 100 0.0 E 35 41 19 22 1007.7 1007.5 2.0
17/06:00am 17.1 12.9 17.1 100 0.0 E 35 39 19 21 1007.7 1007.5 2.0
17/05:50am 16.7 12.7 16.7 100 0.0 E 33 37 18 20 1007.6 1007.4 2.0
17/05:30am 15.9 12.5 15.9 100 0.0 E 28 35 15 19 1007.6 1007.4 2.0
17/05:00am 16.1 14.9 16.1 100 0.0 E 17 22 9 12 1008.9 1008.7 2.0
17/04:30am 16.0 15.2 16.0 100 0.0 ESE 15 20 8 11 1008.8 1008.6 1.6
17/04:00am 16.1 14.9 16.1 100 0.0 E 17 20 9 11 1009.4 1009.2 1.0
17/03:30am 15.8 14.9 15.8 100 0.0 E 15 19 8 10 1009.4 1009.2 0.6
17/03:00am 15.9 13.3 15.9 100 0.0 E 24 30 13 16 1008.4 1008.2 0.6
17/02:30am 15.7 12.6 15.7 100 0.0 E 26 32 14 17 1008.2 1008.0 0.6
17/02:00am 15.7 13.4 15.7 100 0.0 ESE 22 26 12 14 1008.7 1008.5 0.6
17/01:30am 15.6 13.3 15.6 100 0.0 E 22 26 12 14 1009.6 1009.4 0.6
17/01:00am 15.6 14.9 15.4 99 0.1 SE 13 19 7 10 1010.1 1010.0 0.6
17/12:30am 16.1 14.2 15.8 98 0.2 SW 20 26 11 14 1010.3 1010.2 0.6
17/12:00am 16.4 15.6 16.1 98 0.2 W 15 20 8 11 1011.8 1011.7 0.6
 
Date/Time
EDT
Temp
°C
App
Temp
°C
Dew
Point
°C
Rel
Hum
%
Delta-T
°C
Wind Press
QNH
hPa
Press
MSL
hPa
Rain since
9am
mm
Dir  Spd
km/h
Gust
km/h
Spd
kts
Gust
kts
16/11:30pm 16.0 15.8 15.8 99 0.1 N 11 15 6 8 1010.8 1010.7 0.4
16/11:00pm 16.3 15.5 16.0 98 0.2 W 15 24 8 13 1011.3 1011.2 0.4
16/10:30pm 16.3 14.7 16.0 98 0.2 W 19 30 10 16 1011.8 1011.7 0.4
16/10:00pm 16.1 14.4 15.8 98 0.2 NNW 19 22 10 12 1010.3 1010.2 0.4
16/09:30pm 16.6 14.8 16.0 96 0.4 NW 20 26 11 14 1011.5 1011.4 0.4
16/09:00pm 16.1 17.2 15.5 96 0.4 NW 4 13 2 7 1010.9 1010.8 0.4
16/08:30pm 16.1 15.1 15.5 96 0.4 NNE 15 20 8 11 1009.6 1009.4 0.4
16/08:00pm 16.3 14.2 16.1 99 0.1 NE 22 26 12 14 1009.3 1009.1 0.4
16/07:30pm 15.9 12.9 15.9 100 0.0 ENE 26 35 14 19 1008.4 1008.2 0.4
16/07:15pm 16.1 12.8 16.1 100 0.0 NE 28 33 15 18 1008.9 1008.7 0.4
16/07:00pm 15.8 15.1 15.5 98 0.2 NNE 13 15 7 8 1010.5 1010.4 0.4
16/06:30pm 15.4 13.5 14.3 93 0.6 SE 17 32 9 17 1010.3 1010.2 0.4
16/06:09pm 15.1 9.9 14.6 97 0.3 SE 35 54 19 29 1008.5 1008.3 0.4
16/06:00pm 14.9 9.3 14.4 97 0.3 SE 37 46 20 25 1008.7 1008.5 0.4
16/05:50pm 15.0 10.7 14.4 96 0.3 SE 30 43 16 23 1008.7 1008.5 0.4
16/05:30pm 15.4 10.6 13.9 91 0.8 S 32 46 17 25 1010.8 1010.7 0.0
16/05:00pm 15.4 12.0 13.8 90 0.9 S 24 35 13 19 1011.0 1010.9 0.0
16/04:30pm 15.8 12.2 13.1 84 1.5 SSW 24 35 13 19 1011.7 1011.6 0.0
16/04:00pm 16.4 11.8 12.4 77 2.2 SSW 28 37 15 20 1011.5 1011.4 0.0
16/03:30pm 16.5 10.6 12.5 77 2.2 SW 35 48 19 26 1012.1 1012.0 0.0
16/03:00pm 16.6 9.1 12.2 75 2.4 SW 43 54 23 29 1012.9 1012.8 0.0
16/02:30pm 16.8 11.3 11.9 73 2.7 SW 32 48 17 26 1012.7 1012.6 0.0
16/02:29pm 16.7 11.2 11.8 73 2.7 SW 32 48 17 26 1012.8 1012.7 0.0
16/02:00pm 17.4 14.2 11.9 70 3.0 SW 20 30 11 16 1011.6 1011.5 0.0
16/01:30pm 17.8 11.6 12.5 71 3.0 SW 37 44 20 24 1011.9 1011.8 0.0
16/01:00pm 18.4 11.3 12.2 67 3.4 SW 41 50 22 27 1012.5 1012.4 0.0
16/12:30pm 18.1 11.0 12.3 69 3.2 SW 41 50 22 27 1012.1 1012.0 0.0
16/12:00pm 18.3 12.5 12.7 70 3.1 SW 35 44 19 24 1011.3 1011.2 0.0
16/11:30am 18.2 12.7 12.6 70 3.1 SW 33 43 18 23 1011.6 1011.5 0.0
16/11:00am 18.2 12.5 13.1 72 2.9 SW 35 43 19 23 1011.5 1011.4 0.0
16/10:30am 17.9 12.3 13.2 74 2.7 SW 35 43 19 23 1011.6 1011.5 0.0
16/10:00am 18.1 13.0 13.8 76 2.5 SW 33 44 18 24 1011.5 1011.4 0.0
16/09:30am 17.3 12.2 13.2 77 2.3 SW 32 41 17 22 1011.1 1011.0 0.0
16/09:09am 17.2 12.4 13.9 81 1.9 SW 32 39 17 21 1011.0 1010.9 0.0
16/09:00am 16.9 12.4 13.8 82 1.8 SW 30 35 16 19 1011.1 1011.0 -
16/08:30am 16.7 13.3 13.8 83 1.6 SW 24 35 13 19 1010.7 1010.6 -
16/08:15am 16.5 12.9 13.2 81 1.9 SSW 24 35 13 19 1009.9 1009.8 -
16/08:00am 16.4 12.6 13.5 83 1.6 SSW 26 35 14 19 1009.4 1009.2 -
16/07:30am 16.0 13.0 13.7 86 1.3 SW 22 30 12 16 1009.6 1009.4 -
16/07:09am 15.7 12.6 13.5 87 1.2 SSW 22 32 12 17 1009.5 1009.3 -
16/07:00am 15.8 12.8 13.8 88 1.1 SSW 22 33 12 18 1009.3 1009.1 -
16/06:30am 15.9 11.7 14.6 92 0.7 SW 30 39 16 21 1009.3 1009.1 -
16/06:00am 15.9 11.8 14.9 94 0.6 SW 30 39 16 21 1008.9 1008.7 -
16/05:30am 15.8 12.0 14.7 93 0.6 SW 28 37 15 20 1008.6 1008.4 -
16/05:20am 15.7 11.9 14.6 93 0.6 SSW 28 37 15 20 1008.6 1008.4 -
16/05:00am 15.7 11.1 14.6 93 0.6 SSW 32 43 17 23 1008.5 1008.3 -
16/04:30am 15.8 11.8 14.2 90 0.9 SSW 28 39 15 21 1008.5 1008.3 -
16/04:21am 16.1 13.0 14.6 91 0.9 SSW 24 35 13 19 1008.6 1008.4 -
16/04:00am 16.1 12.3 14.6 91 0.9 SW 28 41 15 22 1008.6 1008.4 -
16/03:47am 16.2 12.9 14.9 92 0.8 SW 26 37 14 20 1008.7 1008.5 -
16/03:30am 16.0 12.5 14.4 90 0.9 SW 26 35 14 19 1008.8 1008.6 -
16/03:00am 15.8 12.4 14.8 94 0.6 SW 26 37 14 20 1009.1 1008.9 -
16/02:30am 16.2 11.9 15.4 95 0.5 SW 32 43 17 23 1009.4 1009.2 -
16/02:18am 16.2 11.9 16.0 99 0.1 SW 33 44 18 24 1009.5 1009.3 -
16/02:00am 16.4 12.5 16.4 100 0.0 SW 32 46 17 25 1009.4 1009.2 -
16/01:49am 16.5 12.6 16.5 100 0.0 SW 32 43 17 23 1009.5 1009.3 -
16/01:30am 16.8 13.4 16.8 100 0.0 SW 30 39 16 21 1009.7 1009.6 0.0
16/01:00am 16.9 13.6 16.9 100 0.0 SW 30 37 16 20 1010.0 1009.9 0.0
16/12:30am 16.9 13.9 16.9 100 0.0 SW 28 35 15 19 1009.8 1009.7 0.0
16/12:00am 16.8 13.4 16.8 100 0.0 SW 30 37 16 20 1009.7 1009.6 0.0
 
Date/Time
EDT
Temp
°C
App
Temp
°C
Dew
Point
°C
Rel
Hum
%
Delta-T
°C
Wind Press
QNH
hPa
Press
MSL
hPa
Rain since
9am
mm
Dir  Spd
km/h
Gust
km/h
Spd
kts
Gust
kts
15/11:30pm 16.9 13.2 16.9 100 0.0 SW 32 37 17 20 1009.6 1009.4 0.0
15/11:23pm 17.0 13.6 16.8 99 0.1 SW 30 37 16 20 1009.7 1009.6 0.0
15/11:00pm 17.1 13.3 17.1 100 0.0 SW 33 41 18 22 1009.8 1009.7 0.0
15/10:30pm 17.3 13.5 17.3 100 0.0 SW 33 43 18 23 1009.8 1009.7 0.0
15/10:00pm 17.5 14.4 17.5 100 0.0 SW 30 39 16 21 1009.6 1009.4 0.0

Other Formats:

Comma delimited format used in spreadsheet applications
http://www.bom.gov.au/fwo/IDT60801/IDT60801.95954.axf

JavaScript Object Notation format (JSON) in row-major order
http://www.bom.gov.au/fwo/IDT60801/IDT60801.95954.json